Time;durP1;ratioP1;P1;durP2;ratioP2;P2;SDS_P1;SDS_P2;PMS_P1;PMS_P2;Temp;Humidity;BMP_temperature;BMP_pressure;BME280_temperature;BME280_humidity;BME280_pressure;Samples;Min_cycle;Max_cycle;Signal;HPM_P1;HPM_P2
2023/03/03 00:02:26;;;;;;;97.70;46.80;;;2.50;99.90;;;;;;5045786;28;20219;-64
2023/03/03 00:05:17;;;;;;;100.50;49.63;;;2.40;99.90;;;;;;5049084;28;20938;-66
2023/03/03 00:08:09;;;;;;;95.07;47.77;;;2.20;99.90;;;;;;5033696;28;20725;-66
2023/03/03 00:10:59;;;;;;;101.20;49.83;;;2.30;99.90;;;;;;5057066;28;20235;-66
2023/03/03 00:13:51;;;;;;;107.10;51.87;;;2.20;99.90;;;;;;5061703;28;20311;-65
2023/03/03 00:16:41;;;;;;;104.33;51.67;;;2.30;99.90;;;;;;5064117;28;20538;-68
2023/03/03 00:19:36;;;;;;;100.77;49.50;;;2.30;99.90;;;;;;5043456;28;20232;-64
2023/03/03 00:22:30;;;;;;;107.63;50.67;;;2.30;99.90;;;;;;5047727;28;20220;-65
2023/03/03 00:25:28;;;;;;;104.63;51.40;;;2.20;99.90;;;;;;5065144;28;20229;-64
2023/03/03 00:28:26;;;;;;;108.20;53.03;;;2.20;99.90;;;;;;5053368;28;20295;-63
2023/03/03 00:31:19;;;;;;;104.47;51.40;;;2.30;99.90;;;;;;5048005;28;20678;-64
2023/03/03 00:34:24;;;;;;;107.93;50.50;;;2.40;99.90;;;;;;5047493;28;20250;-63
2023/03/03 00:37:28;;;;;;;108.00;51.63;;;2.40;99.90;;;;;;5053671;28;20226;-67
2023/03/03 00:40:22;;;;;;;100.20;50.23;;;2.30;99.90;;;;;;5045522;28;20259;-65
2023/03/03 00:43:19;;;;;;;96.97;49.57;;;2.30;99.90;;;;;;5047201;28;20218;-65
2023/03/03 00:46:09;;;;;;;98.63;49.40;;;2.40;99.90;;;;;;5035146;28;20296;-65
2023/03/03 00:48:58;;;;;;;96.43;47.90;;;2.30;99.90;;;;;;5032728;28;20229;-66
2023/03/03 00:51:49;;;;;;;93.87;45.60;;;2.30;99.90;;;;;;5046396;28;20276;-66
2023/03/03 00:54:38;;;;;;;93.80;45.00;;;2.20;99.90;;;;;;5071421;28;20238;-65
2023/03/03 00:57:27;;;;;;;92.17;45.53;;;2.20;99.90;;;;;;5054018;28;20219;-66
2023/03/03 01:00:16;;;;;;;83.03;42.90;;;2.20;99.90;;;;;;5025513;28;20360;-65
2023/03/03 01:03:15;;;;;;;87.10;42.53;;;2.30;99.90;;;;;;5044031;28;20746;-65
2023/03/03 01:06:05;;;;;;;84.17;42.83;;;2.20;99.90;;;;;;5060329;28;20233;-65
2023/03/03 01:08:56;;;;;;;82.27;40.53;;;2.20;99.90;;;;;;5026897;28;20321;-65
2023/03/03 01:11:45;;;;;;;75.23;40.13;;;2.20;99.90;;;;;;5056210;28;20319;-64
2023/03/03 01:14:34;;;;;;;77.63;39.33;;;2.20;99.90;;;;;;5044929;28;20230;-64
2023/03/03 01:17:22;;;;;;;77.83;39.57;;;2.30;99.90;;;;;;5054385;28;20231;-64
2023/03/03 01:20:14;;;;;;;73.13;37.83;;;2.30;99.90;;;;;;5048143;28;20222;-68
2023/03/03 01:23:03;;;;;;;77.73;39.07;;;2.20;99.90;;;;;;5043497;28;20227;-65
2023/03/03 01:25:53;;;;;;;71.37;37.00;;;2.30;99.90;;;;;;5047100;28;21025;-65
2023/03/03 01:28:42;;;;;;;69.03;36.87;;;2.20;99.90;;;;;;5054732;28;20665;-64
2023/03/03 01:31:31;;;;;;;77.17;37.63;;;2.30;99.90;;;;;;5063720;28;20235;-65
2023/03/03 01:34:20;;;;;;;68.07;35.73;;;2.10;99.90;;;;;;5038105;28;20670;-65
2023/03/03 01:37:09;;;;;;;74.80;36.73;;;2.20;99.90;;;;;;5042572;28;20263;-65
2023/03/03 01:39:58;;;;;;;75.23;37.33;;;2.10;99.90;;;;;;5054911;28;20214;-66
2023/03/03 01:42:48;;;;;;;78.10;39.20;;;2.20;99.90;;;;;;5054884;28;20212;-64
2023/03/03 01:46:00;;;;;;;72.23;35.93;;;2.10;99.90;;;;;;5041697;28;20754;-64
2023/03/03 01:48:49;;;;;;;71.43;35.77;;;2.10;99.90;;;;;;5037938;28;20219;-65
2023/03/03 01:51:43;;;;;;;63.93;34.53;;;2.10;99.90;;;;;;5061565;28;20398;-64
2023/03/03 01:54:38;;;;;;;66.63;34.43;;;2.10;99.90;;;;;;5058603;28;20223;-65
2023/03/03 01:57:30;;;;;;;66.53;35.00;;;2.30;99.90;;;;;;5026152;28;20214;-64
2023/03/03 02:00:22;;;;;;;63.23;33.43;;;2.20;99.90;;;;;;5050605;28;20220;-64
2023/03/03 02:03:10;;;;;;;73.60;36.37;;;2.10;99.90;;;;;;5041297;28;20261;-67
2023/03/03 02:06:02;;;;;;;70.60;34.70;;;2.20;99.90;;;;;;5041648;28;20247;-66
2023/03/03 02:08:58;;;;;;;73.63;35.87;;;2.10;99.90;;;;;;5025630;28;20248;-67
2023/03/03 02:11:49;;;;;;;69.37;36.43;;;2.10;99.90;;;;;;5057173;28;20310;-67
2023/03/03 02:14:37;;;;;;;66.03;35.90;;;2.20;99.90;;;;;;5077221;28;20704;-68
2023/03/03 02:17:28;;;;;;;73.90;37.43;;;2.20;99.90;;;;;;5034641;28;20230;-65
2023/03/03 02:20:25;;;;;;;74.83;37.57;;;2.20;99.90;;;;;;5073007;28;20256;-65
2023/03/03 02:23:21;;;;;;;70.60;36.23;;;2.20;99.90;;;;;;5050425;28;20224;-64
2023/03/03 02:26:13;;;;;;;65.77;36.03;;;2.20;99.90;;;;;;5050996;28;20322;-67
2023/03/03 02:29:02;;;;;;;73.30;37.97;;;2.20;99.90;;;;;;5045826;28;20322;-67
2023/03/03 02:31:51;;;;;;;74.30;36.83;;;2.10;99.90;;;;;;5057246;28;20235;-66
2023/03/03 02:34:50;;;;;;;67.13;37.00;;;1.90;99.90;;;;;;5047551;28;20223;-63
2023/03/03 02:37:39;;;;;;;70.13;36.40;;;2.10;99.90;;;;;;5050657;28;20222;-64
2023/03/03 02:40:31;;;;;;;70.67;37.33;;;2.00;99.90;;;;;;5067057;28;20217;-66
2023/03/03 02:43:29;;;;;;;74.10;38.87;;;2.10;99.90;;;;;;5051121;28;20221;-67
2023/03/03 02:46:18;;;;;;;71.80;37.20;;;2.00;99.90;;;;;;5060049;28;20642;-65
2023/03/03 02:49:10;;;;;;;69.87;35.93;;;1.90;99.90;;;;;;5068013;28;20315;-65
2023/03/03 02:52:00;;;;;;;69.80;35.40;;;1.90;99.90;;;;;;5058182;28;20251;-64
2023/03/03 02:54:48;;;;;;;74.83;36.37;;;2.00;99.90;;;;;;5037423;28;20227;-64
2023/03/03 02:57:37;;;;;;;69.93;37.10;;;2.00;99.90;;;;;;5063291;28;20235;-66
2023/03/03 03:00:27;;;;;;;65.30;35.43;;;1.90;99.90;;;;;;5068672;28;20296;-66
2023/03/03 03:03:16;;;;;;;69.40;36.03;;;1.90;99.90;;;;;;5050241;28;20221;-64
2023/03/03 03:06:05;;;;;;;71.53;35.83;;;2.00;99.90;;;;;;5066327;28;20226;-66
2023/03/03 03:08:59;;;;;;;73.93;36.77;;;1.70;99.90;;;;;;5048036;28;20224;-66
2023/03/03 03:11:49;;;;;;;75.17;37.10;;;1.70;99.90;;;;;;5049548;28;20220;-65
2023/03/03 03:14:41;;;;;;;73.57;36.00;;;1.80;99.90;;;;;;5042065;28;20213;-64
2023/03/03 03:17:32;;;;;;;68.70;37.33;;;1.70;99.90;;;;;;5048086;28;20229;-66
2023/03/03 03:20:21;;;;;;;73.00;37.60;;;1.80;99.90;;;;;;5041821;28;20223;-66
2023/03/03 03:23:10;;;;;;;71.60;37.43;;;1.60;99.90;;;;;;5062674;28;20251;-66
2023/03/03 03:25:59;;;;;;;79.67;38.03;;;1.60;99.90;;;;;;5048524;28;20231;-63
2023/03/03 03:28:51;;;;;;;74.27;37.93;;;1.70;99.90;;;;;;5054723;28;20231;-63
2023/03/03 03:31:42;;;;;;;82.90;38.83;;;1.80;99.90;;;;;;5050483;28;20754;-64
2023/03/03 03:34:32;;;;;;;75.80;38.13;;;1.80;99.90;;;;;;5044617;28;20225;-65
2023/03/03 03:37:21;;;;;;;84.57;39.20;;;1.70;99.90;;;;;;5038754;28;20359;-64
2023/03/03 03:40:12;;;;;;;71.50;37.43;;;1.60;99.90;;;;;;5061521;28;20243;-64
2023/03/03 03:43:01;;;;;;;75.97;38.97;;;1.70;99.90;;;;;;5041348;28;20225;-64
2023/03/03 03:45:50;;;;;;;77.27;39.27;;;1.60;99.90;;;;;;5046951;28;20331;-66
2023/03/03 03:48:38;;;;;;;71.90;38.10;;;1.70;99.90;;;;;;5027824;28;20273;-66
2023/03/03 03:51:32;;;;;;;72.63;37.70;;;1.70;99.90;;;;;;5057783;28;20311;-65
2023/03/03 03:54:21;;;;;;;75.57;38.70;;;1.70;99.90;;;;;;5055441;28;20228;-65
2023/03/03 03:57:11;;;;;;;70.40;37.93;;;1.80;99.90;;;;;;5061734;28;20692;-65
2023/03/03 04:00:01;;;;;;;76.50;38.97;;;1.70;99.90;;;;;;5054728;28;20220;-64
2023/03/03 04:02:50;;;;;;;78.37;38.33;;;1.80;99.90;;;;;;5052331;28;20243;-67
2023/03/03 04:05:39;;;;;;;78.57;39.37;;;1.80;99.90;;;;;;5052151;28;20225;-65
2023/03/03 04:08:31;;;;;;;73.50;38.80;;;1.80;99.90;;;;;;5047753;28;20832;-66
2023/03/03 04:11:20;;;;;;;76.70;39.03;;;1.70;99.90;;;;;;5036920;28;20229;-65
2023/03/03 04:14:09;;;;;;;73.90;38.53;;;1.60;99.90;;;;;;5046870;28;20908;-64
2023/03/03 04:16:58;;;;;;;75.70;39.23;;;1.70;99.90;;;;;;5048472;28;20251;-66
2023/03/03 04:19:47;;;;;;;79.87;39.47;;;1.60;99.90;;;;;;5049790;28;20246;-66
2023/03/03 04:22:37;;;;;;;80.47;38.87;;;1.70;99.90;;;;;;5049303;28;20274;-63
2023/03/03 04:25:27;;;;;;;75.50;39.13;;;1.60;99.90;;;;;;5046151;28;20248;-65
2023/03/03 04:28:17;;;;;;;77.83;38.93;;;1.50;99.90;;;;;;5051847;28;20294;-64
2023/03/03 04:31:08;;;;;;;72.27;38.30;;;1.60;99.90;;;;;;5036489;28;20575;-66
2023/03/03 04:33:57;;;;;;;72.50;36.97;;;1.70;99.90;;;;;;5058147;28;20311;-66
2023/03/03 04:36:47;;;;;;;77.33;36.93;;;1.70;99.90;;;;;;5037622;28;20221;-64
2023/03/03 04:39:36;;;;;;;71.50;37.00;;;1.60;99.90;;;;;;5054164;28;20213;-65
2023/03/03 04:42:27;;;;;;;78.20;39.10;;;1.60;99.90;;;;;;5072760;28;20244;-66
2023/03/03 04:45:16;;;;;;;74.10;37.10;;;1.60;99.90;;;;;;5060789;28;20240;-66
2023/03/03 04:48:07;;;;;;;78.47;38.03;;;1.60;99.90;;;;;;5050033;28;20354;-63
2023/03/03 04:50:57;;;;;;;78.50;39.13;;;1.40;99.90;;;;;;5045910;28;21174;-66
2023/03/03 04:53:48;;;;;;;82.30;39.43;;;1.40;99.90;;;;;;5057561;28;20294;-65
2023/03/03 04:56:37;;;;;;;76.70;38.03;;;1.50;99.90;;;;;;5042198;28;20216;-65
2023/03/03 04:59:28;;;;;;;79.53;39.33;;;1.40;99.90;;;;;;5049322;28;20225;-65
2023/03/03 05:02:18;;;;;;;80.73;39.53;;;1.30;99.90;;;;;;5034448;28;20226;-65
2023/03/03 05:05:10;;;;;;;79.37;38.87;;;1.40;99.90;;;;;;5042276;28;20233;-66
2023/03/03 05:07:58;;;;;;;88.53;40.83;;;1.40;99.90;;;;;;5048410;28;20233;-66
2023/03/03 05:10:51;;;;;;;82.50;40.07;;;1.30;99.90;;;;;;5047486;28;20218;-64
2023/03/03 05:13:39;;;;;;;88.23;41.40;;;1.40;99.90;;;;;;5053270;28;20247;-63
2023/03/03 05:16:30;;;;;;;83.50;40.23;;;1.50;99.90;;;;;;5046519;28;20259;-64
2023/03/03 05:19:19;;;;;;;95.13;41.73;;;1.30;99.90;;;;;;5052082;28;20307;-65
2023/03/03 05:22:09;;;;;;;84.97;40.80;;;1.30;99.90;;;;;;5058844;28;20216;-63
2023/03/03 05:24:57;;;;;;;84.67;41.43;;;1.30;99.90;;;;;;5064864;28;20232;-65
2023/03/03 05:27:46;;;;;;;87.37;41.17;;;1.30;99.90;;;;;;5065080;28;20219;-64
2023/03/03 05:30:35;;;;;;;87.27;41.47;;;1.30;99.90;;;;;;5061353;28;20641;-64
2023/03/03 05:33:25;;;;;;;85.83;40.87;;;1.30;99.90;;;;;;5021921;28;20237;-64
2023/03/03 05:36:14;;;;;;;88.57;42.67;;;1.30;99.90;;;;;;5020917;28;20225;-64
2023/03/03 05:39:03;;;;;;;87.13;42.30;;;1.40;99.90;;;;;;5022646;28;20223;-65
2023/03/03 05:41:52;;;;;;;93.37;43.97;;;1.30;99.90;;;;;;5019094;28;20319;-66
2023/03/03 05:44:41;;;;;;;98.13;46.33;;;1.50;99.90;;;;;;5031371;28;20227;-65
2023/03/03 05:47:30;;;;;;;92.90;44.53;;;1.60;99.90;;;;;;5019904;28;20219;-65
2023/03/03 05:50:21;;;;;;;98.87;44.40;;;1.60;99.90;;;;;;5021826;28;20234;-63
2023/03/03 05:53:10;;;;;;;96.67;45.43;;;1.50;99.90;;;;;;5041808;28;20231;-64
2023/03/03 05:55:58;;;;;;;93.57;44.13;;;1.60;99.90;;;;;;5021578;28;20236;-64
2023/03/03 05:58:47;;;;;;;106.83;47.27;;;1.80;99.90;;;;;;5020844;28;20238;-63
2023/03/03 06:01:36;;;;;;;99.90;46.60;;;1.80;99.90;;;;;;5018857;28;20789;-64
2023/03/03 06:04:25;;;;;;;107.10;46.37;;;1.70;99.90;;;;;;5023667;28;20219;-64
2023/03/03 06:07:15;;;;;;;108.17;46.60;;;1.70;99.90;;;;;;5020096;28;20239;-62
2023/03/03 06:10:04;;;;;;;106.73;46.97;;;1.80;99.90;;;;;;5021464;28;20341;-63
2023/03/03 06:12:57;;;;;;;104.27;47.27;;;1.80;99.90;;;;;;5032537;28;20308;-66
2023/03/03 06:15:46;;;;;;;106.77;46.47;;;1.80;99.90;;;;;;5015623;28;20230;-65
2023/03/03 06:18:35;;;;;;;102.70;46.60;;;1.80;99.90;;;;;;5037266;28;20669;-65
2023/03/03 06:21:23;;;;;;;111.30;49.03;;;1.90;99.90;;;;;;5025329;28;20229;-63
2023/03/03 06:24:14;;;;;;;109.90;47.60;;;1.80;99.90;;;;;;5020519;28;20245;-64
2023/03/03 06:27:02;;;;;;;110.23;46.17;;;1.70;99.90;;;;;;5020752;28;20230;-66
2023/03/03 06:29:51;;;;;;;113.80;48.60;;;1.70;99.90;;;;;;5011158;28;20594;-60
2023/03/03 06:32:40;;;;;;;121.80;48.30;;;1.70;99.90;;;;;;5052000;28;21065;-67
2023/03/03 06:35:29;;;;;;;107.27;45.47;;;1.80;99.90;;;;;;5062138;28;20699;-64
2023/03/03 06:38:19;;;;;;;115.53;47.47;;;2.00;99.90;;;;;;5034121;28;20233;-63
2023/03/03 06:41:09;;;;;;;117.03;48.37;;;1.90;99.90;;;;;;5042923;28;20225;-62
2023/03/03 06:43:59;;;;;;;105.87;46.47;;;1.80;99.90;;;;;;5064823;28;20240;-64
2023/03/03 06:46:48;;;;;;;104.20;43.37;;;1.70;99.90;;;;;;5057356;28;20217;-68
2023/03/03 06:49:37;;;;;;;104.47;44.83;;;1.70;99.90;;;;;;5045310;28;20232;-65
2023/03/03 06:52:27;;;;;;;100.60;44.10;;;1.70;99.90;;;;;;5066248;28;20225;-65
2023/03/03 06:55:22;;;;;;;95.23;42.20;;;1.70;99.90;;;;;;5061088;28;20228;-63
2023/03/03 06:58:15;;;;;;;95.03;41.87;;;1.50;99.90;;;;;;5037391;28;20714;-64
2023/03/03 07:01:11;;;;;;;96.20;41.37;;;1.50;99.90;;;;;;5049590;28;20249;-67
2023/03/03 07:04:01;;;;;;;90.73;40.90;;;1.60;99.90;;;;;;5051914;28;20226;-65
2023/03/03 07:06:49;;;;;;;84.63;38.70;;;1.70;99.90;;;;;;5057502;28;20370;-71
2023/03/03 07:09:38;;;;;;;83.37;37.33;;;1.70;99.90;;;;;;5045320;28;20234;-67
2023/03/03 07:12:29;;;;;;;90.90;37.10;;;1.60;99.90;;;;;;5034369;28;20230;-68
2023/03/03 07:15:23;;;;;;;79.57;37.70;;;1.50;99.90;;;;;;5048200;28;20312;-65
2023/03/03 07:18:25;;;;;;;85.80;37.13;;;1.70;99.90;;;;;;5062121;28;20295;-64
2023/03/03 07:21:17;;;;;;;79.03;35.53;;;1.80;99.90;;;;;;5059216;28;20225;-64
2023/03/03 07:24:22;;;;;;;82.07;35.93;;;1.80;99.90;;;;;;5072770;28;20230;-65
2023/03/03 07:27:15;;;;;;;81.13;35.33;;;1.90;99.90;;;;;;5058750;28;20225;-65
2023/03/03 07:30:24;;;;;;;82.00;35.67;;;1.70;99.90;;;;;;5063661;28;20232;-65
2023/03/03 07:33:23;;;;;;;76.53;33.97;;;1.80;99.90;;;;;;5058121;28;20225;-65
2023/03/03 07:36:26;;;;;;;76.77;32.93;;;1.80;99.90;;;;;;5057945;28;20220;-65
2023/03/03 07:39:25;;;;;;;74.13;33.20;;;1.70;99.90;;;;;;5050354;28;20340;-66
2023/03/03 07:42:22;;;;;;;73.77;30.80;;;2.00;99.90;;;;;;5032826;28;20229;-65
2023/03/03 07:45:38;;;;;;;75.87;31.87;;;1.80;99.90;;;;;;5055787;28;20236;-66
2023/03/03 07:48:32;;;;;;;73.23;31.20;;;1.80;99.90;;;;;;5050566;28;20229;-65
2023/03/03 07:51:24;;;;;;;79.40;32.43;;;1.90;99.90;;;;;;5044187;28;20240;-66
2023/03/03 07:54:27;;;;;;;70.93;32.07;;;2.00;99.90;;;;;;5046417;28;20268;-66
2023/03/03 07:57:23;;;;;;;71.80;32.13;;;2.10;99.90;;;;;;5081226;28;20224;-66
2023/03/03 08:00:50;;;;;;;68.70;31.13;;;2.10;99.90;;;;;;5057836;28;20246;-66
2023/03/03 08:03:44;;;;;;;76.20;32.90;;;2.10;99.90;;;;;;4979754;28;20225;-67
2023/03/03 08:06:51;;;;;;;75.63;31.57;;;2.20;99.90;;;;;;5059687;28;20787;-67
2023/03/03 08:09:46;;;;;;;73.03;30.60;;;2.10;99.90;;;;;;5044175;28;20667;-67
2023/03/03 08:12:40;;;;;;;70.97;31.27;;;2.10;99.90;;;;;;5050609;28;20223;-68
2023/03/03 08:15:36;;;;;;;68.73;31.63;;;2.20;99.90;;;;;;5058634;28;20237;-66
2023/03/03 08:18:29;;;;;;;70.50;31.67;;;2.30;99.90;;;;;;5052220;28;20219;-66
2023/03/03 08:21:24;;;;;;;59.20;27.73;;;2.30;99.90;;;;;;5046645;28;20219;-65
2023/03/03 08:24:12;;;;;;;72.03;30.87;;;2.30;99.90;;;;;;5040806;28;20767;-62
2023/03/03 08:27:02;;;;;;;70.03;31.40;;;2.20;99.90;;;;;;5042899;28;20229;-68
2023/03/03 08:29:50;;;;;;;73.27;31.50;;;2.20;99.90;;;;;;5036197;28;20239;-67
2023/03/03 08:32:39;;;;;;;65.33;29.53;;;2.30;99.90;;;;;;5055562;28;20931;-68
2023/03/03 08:35:28;;;;;;;66.30;29.33;;;2.50;99.90;;;;;;5036022;28;20226;-67
2023/03/03 08:38:20;;;;;;;70.43;35.07;;;2.50;99.90;;;;;;5041787;28;20223;-69
2023/03/03 08:41:09;;;;;;;72.17;30.57;;;2.60;99.90;;;;;;5048144;28;20470;-67
2023/03/03 08:43:58;;;;;;;66.17;29.60;;;2.60;99.90;;;;;;5064633;28;20229;-67
2023/03/03 08:46:47;;;;;;;70.00;31.50;;;2.80;99.90;;;;;;5041813;28;20246;-66
2023/03/03 08:49:36;;;;;;;69.67;31.30;;;2.80;99.90;;;;;;5044361;28;20299;-67
2023/03/03 08:52:25;;;;;;;65.40;29.93;;;2.70;99.90;;;;;;5052278;28;20219;-66
2023/03/03 08:55:15;;;;;;;68.97;29.40;;;2.60;99.90;;;;;;5057875;28;20720;-66
2023/03/03 08:58:04;;;;;;;69.83;33.43;;;2.60;99.90;;;;;;5028151;28;20247;-66
2023/03/03 09:00:53;;;;;;;67.73;32.03;;;2.40;99.90;;;;;;5038351;28;20254;-67
2023/03/03 09:03:42;;;;;;;64.23;31.07;;;2.50;99.90;;;;;;5026769;28;20228;-67
2023/03/03 09:06:31;;;;;;;61.60;29.20;;;2.60;99.90;;;;;;5030113;28;20243;-67
2023/03/03 09:09:22;;;;;;;62.33;29.27;;;2.50;99.90;;;;;;5064146;28;20236;-66
2023/03/03 09:12:17;;;;;;;64.57;31.03;;;2.60;99.90;;;;;;5053685;28;20251;-66
2023/03/03 09:15:25;;;;;;;69.97;30.60;;;2.70;99.90;;;;;;5044590;28;20237;-67
2023/03/03 09:18:16;;;;;;;69.17;31.90;;;2.70;99.90;;;;;;5047865;28;20698;-65
2023/03/03 09:21:20;;;;;;;67.60;32.70;;;2.50;99.90;;;;;;5034208;28;20291;-65
2023/03/03 09:24:24;;;;;;;72.40;31.07;;;2.60;99.90;;;;;;5048808;28;20228;-66
2023/03/03 09:27:22;;;;;;;70.57;32.07;;;2.80;99.90;;;;;;5054807;28;20705;-67
2023/03/03 09:30:30;;;;;;;66.53;31.27;;;2.60;99.90;;;;;;5046772;28;20750;-65
2023/03/03 09:33:26;;;;;;;72.80;32.87;;;2.70;99.90;;;;;;5055990;28;20367;-64
2023/03/03 09:36:24;;;;;;;71.50;32.77;;;2.60;99.90;;;;;;5053913;28;20215;-66
2023/03/03 09:39:22;;;;;;;74.30;33.20;;;2.80;99.90;;;;;;5060126;28;20414;-67
2023/03/03 09:42:34;;;;;;;73.13;32.27;;;2.70;99.90;;;;;;5059112;28;20215;-65
2023/03/03 09:45:50;;;;;;;72.53;31.43;;;2.80;99.90;;;;;;5041267;28;20606;-66
2023/03/03 09:48:51;;;;;;;72.90;32.97;;;2.80;99.90;;;;;;5058947;28;20334;-66
2023/03/03 09:52:12;;;;;;;62.83;30.27;;;2.90;99.90;;;;;;5066193;28;20553;-65
2023/03/03 09:55:21;;;;;;;69.80;31.67;;;2.90;99.90;;;;;;5059342;28;20304;-67
2023/03/03 09:58:32;;;;;;;64.97;30.67;;;3.00;99.90;;;;;;5058779;28;20230;-65
2023/03/03 10:01:42;;;;;;;65.53;29.63;;;2.70;99.90;;;;;;5059144;28;20588;-66
2023/03/03 10:05:03;;;;;;;65.70;29.63;;;2.70;99.90;;;;;;5037721;28;20272;-65
2023/03/03 10:08:15;;;;;;;60.37;29.10;;;2.80;99.90;;;;;;5053734;28;20804;-63
2023/03/03 10:11:13;;;;;;;62.67;29.97;;;2.90;99.90;;;;;;5047097;28;20235;-65
2023/03/03 10:14:15;;;;;;;69.53;31.17;;;3.00;99.90;;;;;;5064575;28;20936;-61
2023/03/03 10:17:21;;;;;;;67.10;30.23;;;3.00;99.90;;;;;;5061258;28;20315;-66
2023/03/03 10:20:23;;;;;;;71.33;33.57;;;3.00;99.90;;;;;;5058501;28;20215;-66
2023/03/03 10:23:21;;;;;;;64.80;29.53;;;2.70;99.90;;;;;;5056408;28;20305;-66
2023/03/03 10:26:21;;;;;;;60.60;29.10;;;2.70;99.90;;;;;;5062354;28;20227;-65
2023/03/03 10:29:37;;;;;;;65.40;28.93;;;2.70;99.90;;;;;;5065337;28;20232;-64
2023/03/03 10:32:47;;;;;;;62.90;29.00;;;2.70;99.90;;;;;;5025872;28;20243;-65
2023/03/03 10:35:46;;;;;;;65.60;28.30;;;2.70;99.90;;;;;;5026456;28;20224;-65
2023/03/03 10:39:06;;;;;;;56.30;28.17;;;2.50;99.90;;;;;;5042148;28;20318;-64
2023/03/03 10:42:10;;;;;;;60.17;27.43;;;2.70;99.90;;;;;;5044477;28;20265;-64
2023/03/03 10:45:29;;;;;;;54.87;25.47;;;2.70;99.90;;;;;;5055998;28;20231;-64
2023/03/03 10:48:40;;;;;;;58.63;26.23;;;2.60;99.90;;;;;;5056788;28;20296;-64
2023/03/03 10:51:37;;;;;;;57.50;27.87;;;2.60;99.90;;;;;;5049674;28;20330;-65
2023/03/03 10:54:38;;;;;;;79.30;38.57;;;2.70;99.90;;;;;;5060874;28;20224;-63
2023/03/03 10:57:34;;;;;;;56.33;26.03;;;2.80;99.90;;;;;;5061324;28;20801;-66
2023/03/03 11:00:27;;;;;;;52.30;23.57;;;2.70;99.90;;;;;;5048051;28;20817;-64
2023/03/03 11:03:48;;;;;;;47.13;23.53;;;2.80;99.90;;;;;;5062977;28;20234;-66
2023/03/03 11:06:46;;;;;;;50.87;24.87;;;2.80;99.90;;;;;;5056271;28;20357;-65
2023/03/03 11:09:52;;;;;;;50.63;24.20;;;2.70;99.90;;;;;;5042883;28;20226;-66
2023/03/03 11:12:52;;;;;;;49.70;24.43;;;2.70;99.90;;;;;;5068382;28;20723;-66
2023/03/03 11:15:59;;;;;;;45.93;23.10;;;2.80;99.90;;;;;;5068374;28;20226;-64
2023/03/03 11:19:02;;;;;;;50.13;23.20;;;2.60;99.90;;;;;;5027680;28;20223;-64
2023/03/03 11:22:00;;;;;;;49.43;24.03;;;2.50;99.90;;;;;;5034143;28;20308;-63
2023/03/03 11:25:02;;;;;;;46.37;23.10;;;2.50;99.90;;;;;;5056475;28;20257;-65
2023/03/03 11:28:21;;;;;;;44.23;22.33;;;2.40;99.90;;;;;;5041900;28;20306;-65
2023/03/03 11:31:21;;;;;;;40.10;21.17;;;2.50;99.90;;;;;;5063962;28;20340;-68
2023/03/03 11:34:22;;;;;;;44.13;22.13;;;2.60;99.90;;;;;;5059992;28;20264;-66
2023/03/03 11:37:17;;;;;;;45.50;22.17;;;2.50;99.90;;;;;;5055991;28;20226;-65
2023/03/03 11:40:16;;;;;;;94.63;51.07;;;2.50;99.90;;;;;;5040235;28;20294;-65
2023/03/03 11:43:13;;;;;;;44.07;23.20;;;2.70;99.90;;;;;;5051273;28;20234;-66
2023/03/03 11:46:29;;;;;;;41.00;21.77;;;2.60;99.90;;;;;;5046994;28;20230;-66
2023/03/03 11:49:25;;;;;;;41.60;21.47;;;2.60;99.90;;;;;;5045771;28;20249;-65
2023/03/03 11:52:24;;;;;;;41.33;21.60;;;2.60;99.90;;;;;;5026606;28;20246;-65
2023/03/03 11:55:15;;;;;;;40.40;21.60;;;2.60;99.90;;;;;;5045131;28;20234;-67
2023/03/03 11:58:13;;;;;;;41.03;22.57;;;2.60;99.90;;;;;;5039936;28;20310;-66
2023/03/03 12:01:14;;;;;;;44.43;22.23;;;2.50;99.90;;;;;;5040322;28;20275;-66
2023/03/03 12:04:09;;;;;;;41.57;21.37;;;2.70;99.90;;;;;;5058670;28;20227;-66
2023/03/03 12:07:13;;;;;;;40.07;21.60;;;2.60;99.90;;;;;;5065092;28;20241;-66
2023/03/03 12:10:23;;;;;;;45.67;22.87;;;2.60;99.90;;;;;;5030505;28;20662;-65
2023/03/03 12:13:21;;;;;;;44.70;22.57;;;2.60;99.90;;;;;;5065097;28;20230;-67
2023/03/03 12:16:20;;;;;;;46.43;22.83;;;2.70;99.90;;;;;;5057858;28;20235;-67
2023/03/03 12:19:33;;;;;;;41.83;21.37;;;2.80;99.90;;;;;;5044470;28;20223;-64
2023/03/03 12:22:29;;;;;;;45.40;20.30;;;2.70;99.90;;;;;;5037009;28;20236;-65
2023/03/03 12:25:33;;;;;;;42.83;21.13;;;2.80;99.90;;;;;;5055323;28;20234;-67
2023/03/03 12:28:26;;;;;;;42.20;22.13;;;2.80;99.90;;;;;;5024176;28;20239;-65
2023/03/03 12:31:28;;;;;;;43.47;21.87;;;2.80;99.90;;;;;;5042893;28;20231;-63
2023/03/03 12:34:26;;;;;;;40.83;21.13;;;2.80;99.90;;;;;;5051825;28;20580;-63
2023/03/03 12:37:45;;;;;;;40.67;20.83;;;2.60;99.90;;;;;;5045045;28;21011;-66
2023/03/03 12:40:35;;;;;;;41.57;22.23;;;2.50;99.90;;;;;;5060679;28;20735;-66
2023/03/03 12:43:40;;;;;;;42.67;21.87;;;2.60;99.90;;;;;;5060846;28;20265;-66
2023/03/03 12:46:37;;;;;;;44.13;21.60;;;2.40;99.90;;;;;;5056564;28;20692;-65
2023/03/03 12:49:38;;;;;;;37.97;20.07;;;2.40;99.90;;;;;;5054531;28;20242;-65
2023/03/03 12:52:46;;;;;;;45.23;21.10;;;2.50;99.90;;;;;;5041378;28;20227;-66
2023/03/03 12:55:48;;;;;;;34.80;20.30;;;2.50;99.90;;;;;;5052484;28;20234;-63
2023/03/03 12:58:49;;;;;;;38.77;19.80;;;2.60;99.90;;;;;;5058344;28;20298;-63
2023/03/03 13:01:48;;;;;;;36.80;19.60;;;2.70;99.90;;;;;;5054758;28;20226;-62
2023/03/03 13:04:44;;;;;;;41.63;20.40;;;2.50;99.90;;;;;;5045563;28;20216;-63
2023/03/03 13:07:41;;;;;;;37.20;19.03;;;2.60;99.90;;;;;;5050051;28;20217;-61
2023/03/03 13:10:39;;;;;;;37.90;20.63;;;2.50;99.90;;;;;;5040131;28;20696;-63
2023/03/03 13:13:34;;;;;;;36.57;19.57;;;2.50;99.90;;;;;;5057782;28;20579;-62
2023/03/03 13:16:29;;;;;;;40.03;19.30;;;2.40;99.90;;;;;;5039987;28;20303;-62
2023/03/03 13:19:35;;;;;;;34.53;19.27;;;2.50;99.90;;;;;;5022040;28;20226;-62
2023/03/03 13:22:38;;;;;;;35.07;18.83;;;2.50;99.90;;;;;;5059010;28;20226;-62
2023/03/03 13:25:43;;;;;;;38.20;18.40;;;2.50;99.90;;;;;;5035688;28;20640;-63
2023/03/03 13:28:37;;;;;;;36.97;18.87;;;2.50;99.90;;;;;;5034976;28;20310;-64
2023/03/03 13:31:32;;;;;;;38.17;18.40;;;2.40;99.90;;;;;;5060951;28;20245;-61
2023/03/03 13:34:32;;;;;;;40.70;19.10;;;2.50;99.90;;;;;;5045641;28;20229;-63
2023/03/03 13:37:24;;;;;;;36.93;18.67;;;2.50;99.90;;;;;;5057738;28;20229;-63
2023/03/03 13:40:19;;;;;;;40.97;20.13;;;2.50;99.90;;;;;;5037551;28;20225;-61
2023/03/03 13:43:14;;;;;;;38.20;18.87;;;2.40;99.90;;;;;;5034347;28;20817;-61
2023/03/03 13:46:11;;;;;;;41.27;20.10;;;2.50;99.90;;;;;;5050218;28;20226;-61
2023/03/03 13:49:21;;;;;;;39.87;19.07;;;2.40;99.90;;;;;;5054964;28;20216;-68
2023/03/03 13:52:13;;;;;;;37.97;18.87;;;2.50;99.90;;;;;;5047771;28;20220;-69
2023/03/03 13:55:13;;;;;;;41.23;20.03;;;2.40;99.90;;;;;;5051823;28;20250;-66
2023/03/03 13:58:14;;;;;;;42.97;18.93;;;2.40;99.90;;;;;;5055246;28;20228;-67
2023/03/03 14:01:09;;;;;;;40.73;19.43;;;2.50;99.90;;;;;;5059308;28;20232;-67
2023/03/03 14:04:06;;;;;;;40.43;18.77;;;2.40;99.90;;;;;;5052069;28;20690;-67
2023/03/03 14:07:01;;;;;;;35.57;17.60;;;2.50;99.90;;;;;;5059347;28;20702;-67
2023/03/03 14:10:05;;;;;;;34.53;18.10;;;2.50;99.90;;;;;;5046432;28;21410;-66
2023/03/03 14:13:03;;;;;;;33.57;16.90;;;2.60;99.90;;;;;;5037380;28;20239;-68
2023/03/03 14:15:58;;;;;;;38.03;18.10;;;2.60;99.90;;;;;;5029823;28;20263;-67
2023/03/03 14:18:55;;;;;;;34.33;17.77;;;2.60;99.90;;;;;;5050502;28;20353;-67
2023/03/03 14:21:51;;;;;;;36.57;18.47;;;2.60;99.90;;;;;;5061176;28;20218;-69
2023/03/03 14:25:02;;;;;;;36.27;18.77;;;2.60;99.90;;;;;;5055100;28;20219;-67
2023/03/03 14:28:04;;;;;;;35.83;18.17;;;2.50;99.90;;;;;;5051437;28;20341;-68
2023/03/03 14:30:56;;;;;;;44.10;20.73;;;2.60;99.90;;;;;;5062254;28;20272;-66
2023/03/03 14:33:58;;;;;;;39.80;19.03;;;2.70;99.90;;;;;;5059249;28;20232;-65
2023/03/03 14:36:47;;;;;;;36.87;18.40;;;2.50;99.90;;;;;;5040321;28;20257;-65
2023/03/03 14:39:37;;;;;;;41.30;19.17;;;2.50;99.90;;;;;;5056136;28;20217;-66
2023/03/03 14:42:36;;;;;;;39.57;19.23;;;2.50;99.90;;;;;;5050624;28;20710;-67
2023/03/03 14:45:34;;;;;;;37.03;18.50;;;2.40;99.90;;;;;;5051715;28;20222;-67
2023/03/03 14:48:26;;;;;;;36.53;17.43;;;2.50;99.90;;;;;;5044195;28;20246;-66
2023/03/03 14:51:24;;;;;;;38.20;18.53;;;2.60;99.90;;;;;;5051539;28;20552;-66
2023/03/03 14:54:21;;;;;;;42.77;20.03;;;2.50;99.90;;;;;;5055625;28;20227;-68
2023/03/03 14:57:15;;;;;;;43.10;21.23;;;2.50;99.90;;;;;;5057059;28;20234;-68
2023/03/03 15:00:26;;;;;;;38.83;19.23;;;2.40;99.90;;;;;;5045908;28;20346;-68